首页
METAR-TAF:

METAR-TAF

机场 :

Jimmy Lake, 薩斯喀徹溫, 加拿大

纬度: 54-55N, 经度: 109-57W, 海拔: 658米

当前天气观测

该预报发布于53分钟前的08:00 UTC
风速4节,风向,在北转西北东北之间变化
温度 -25°C
湿度 69%
气压 1017 hPa
能見度: 14.5公里
天空无云

METAR: CWHN 130800Z AUTO 36004KT 340V050 9SM CLR M25/M29 A3002 RMK SLP233

时间: 02:53 (08:53 UTC)


TAF: 丢失

超过4000个机场的气象观测和天气预报(METAR&TAF报告)。

可查询的气象台以黄色和红色小点在地图上表示。

将鼠标移到小点上方,可查看气象台名称。

然后点击查看天气观测和预报。

如需切换地图:点击带黑十字的绿色按钮放大地图;点击带横线的绿色按钮缩小地图;或者点击绿色箭头查看邻近地区的地图。


METAR-TAF: